Time;durP1;ratioP1;P1;durP2;ratioP2;P2;SDS_P1;SDS_P2;PMS_P1;PMS_P2;Temp;Humidity;BMP_temperature;BMP_pressure;BME280_temperature;BME280_humidity;BME280_pressure;Samples;Min_cycle;Max_cycle;Signal;HPM_P1;HPM_P2
2022/02/24 00:00:17;;;;;;;;;13.00;9.50;;;;;11.28;67.10;101029.56;4937708;28;45405;-72
2022/02/24 00:02:43;;;;;;;;;13.50;9.00;;;;;11.32;66.54;101039.06;4937273;28;45449;-60
2022/02/24 00:05:10;;;;;;;;;16.75;11.50;;;;;11.27;67.09;101027.84;4936647;28;45490;-66
2022/02/24 00:07:35;;;;;;;;;11.25;8.00;;;;;11.30;67.32;101028.59;4937567;28;45211;-71
2022/02/24 00:10:01;;;;;;;;;10.50;7.75;;;;;11.27;67.57;101017.28;4936923;28;45399;-61
2022/02/24 00:12:26;;;;;;;;;16.75;13.00;;;;;11.28;67.59;101024.28;4937221;28;45413;-68
2022/02/24 00:14:56;;;;;;;;;13.50;11.00;;;;;11.25;67.83;101027.91;4937784;28;45654;-71
2022/02/24 00:17:22;;;;;;;;;12.00;11.50;;;;;11.22;67.54;101020.13;4935851;28;48187;-67
2022/02/24 00:19:47;;;;;;;;;18.25;13.00;;;;;11.19;68.18;101017.59;4937256;28;45260;-69
2022/02/24 00:22:13;;;;;;;;;13.00;12.75;;;;;11.18;68.21;101019.34;4937554;28;45262;-62
2022/02/24 00:24:38;;;;;;;;;13.00;10.75;;;;;11.19;68.33;101020.22;4936670;28;45328;-68
2022/02/24 00:27:03;;;;;;;;;15.00;13.50;;;;;11.17;68.60;101024.69;4937384;28;46496;-68
2022/02/24 00:29:29;;;;;;;;;17.50;11.00;;;;;11.18;68.10;101010.59;4937270;28;45330;-68
2022/02/24 00:31:54;;;;;;;;;15.00;13.50;;;;;11.14;68.29;101001.09;4937463;28;45201;-66
2022/02/24 00:34:23;;;;;;;;;18.75;15.50;;;;;11.15;68.88;101002.81;4937477;28;45378;-65
2022/02/24 00:36:53;;;;;;;;;16.00;12.00;;;;;11.15;68.55;101000.19;4936948;28;47011;-59
2022/02/24 00:39:20;;;;;;;;;16.00;15.00;;;;;11.16;68.81;101002.75;4935585;28;45323;-62
2022/02/24 00:41:46;;;;;;;;;10.00;10.00;;;;;11.17;69.17;100996.56;4937039;28;45318;-63
2022/02/24 00:44:12;;;;;;;;;14.75;11.25;;;;;11.15;69.20;100990.50;4937622;28;45451;-68
2022/02/24 00:46:37;;;;;;;;;14.25;12.25;;;;;11.16;69.80;100991.38;4936937;28;45614;-65
2022/02/24 00:49:03;;;;;;;;;17.75;13.25;;;;;11.10;69.35;100987.16;4936924;28;45311;-70
2022/02/24 00:51:28;;;;;;;;;19.25;14.25;;;;;11.15;69.45;100977.34;4935711;28;45275;-67
2022/02/24 00:53:54;;;;;;;;;16.00;14.00;;;;;11.13;69.84;100968.63;4937184;28;45291;-67
2022/02/24 00:56:19;;;;;;;;;16.00;12.50;;;;;11.18;70.03;100974.59;4936911;28;45323;-68
2022/02/24 00:58:45;;;;;;;;;15.25;13.75;;;;;11.15;69.69;100977.34;4937008;28;45686;-60
2022/02/24 01:01:10;;;;;;;;;13.25;13.25;;;;;11.13;69.93;100966.00;4937049;28;45297;-70
2022/02/24 01:03:35;;;;;;;;;17.75;14.00;;;;;11.19;70.22;100976.31;4936842;28;45545;-65
2022/02/24 01:06:01;;;;;;;;;15.50;13.00;;;;;11.21;70.24;100969.22;4936612;28;45344;-68
2022/02/24 01:08:26;;;;;;;;;19.25;12.50;;;;;11.22;70.24;100959.56;4935506;28;45496;-72
2022/02/24 01:10:52;;;;;;;;;19.75;16.75;;;;;11.24;69.96;100960.34;4936386;28;45377;-72
2022/02/24 01:13:17;;;;;;;;;15.50;10.25;;;;;11.22;69.96;100959.56;4936923;28;45356;-67
2022/02/24 01:15:43;;;;;;;;;14.75;13.00;;;;;11.24;69.89;100961.19;4936816;28;45751;-68
2022/02/24 01:18:09;;;;;;;;;13.75;11.50;;;;;11.22;69.89;100944.59;4936948;28;45436;-71
2022/02/24 01:20:36;;;;;;;;;9.25;8.50;;;;;11.20;69.86;100935.91;4936856;28;45359;-69
2022/02/24 01:23:01;;;;;;;;;10.25;8.00;;;;;11.22;69.73;100933.22;4937716;28;45497;-67
2022/02/24 01:25:27;;;;;;;;;9.25;7.00;;;;;11.16;69.47;100936.91;4940221;28;46163;-66
2022/02/24 01:27:53;;;;;;;;;10.75;6.00;;;;;11.13;68.99;100934.41;4940701;28;45262;-69
2022/02/24 01:30:20;;;;;;;;;8.25;7.00;;;;;11.10;69.45;100927.47;4940042;28;45373;-68
2022/02/24 01:32:45;;;;;;;;;7.75;5.25;;;;;11.11;69.55;100930.97;4939447;28;45315;-71
2022/02/24 01:35:11;;;;;;;;;6.00;4.00;;;;;11.11;69.16;100930.97;4939556;28;46288;-69
2022/02/24 01:37:36;;;;;;;;;6.25;6.00;;;;;11.09;69.18;100922.28;4939736;28;45430;-68
2022/02/24 01:40:03;;;;;;;;;9.00;7.00;;;;;11.10;69.15;100926.63;4939941;28;45417;-67
2022/02/24 01:42:29;;;;;;;;;9.00;6.50;;;;;11.09;68.91;100924.91;4939956;28;45357;-68
2022/02/24 01:44:54;;;;;;;;;8.25;6.25;;;;;11.06;68.68;100923.22;4939227;28;45398;-67
2022/02/24 01:47:20;;;;;;;;;8.75;6.75;;;;;10.99;68.99;100919.09;4939737;28;45354;-72
2022/02/24 01:49:45;;;;;;;;;10.00;7.00;;;;;10.95;68.69;100915.75;4940247;28;45414;-62
2022/02/24 01:52:12;;;;;;;;;7.75;7.25;;;;;10.91;69.51;100914.13;4938460;28;45619;-72
2022/02/24 01:54:39;;;;;;;;;7.25;5.00;;;;;10.86;69.96;100916.06;4939600;28;46282;-72
2022/02/24 01:57:07;;;;;;;;;8.25;7.00;;;;;10.84;70.22;100923.16;4939580;28;45275;-72
2022/02/24 01:59:33;;;;;;;;;9.75;6.75;;;;;10.81;71.04;100925.91;4939577;28;45517;-72
2022/02/24 02:01:58;;;;;;;;;6.25;6.00;;;;;10.76;71.20;100922.59;4939930;28;45572;-74
2022/02/24 02:04:24;;;;;;;;;12.25;9.25;;;;;10.70;71.17;100921.00;4939648;28;45267;-69
2022/02/24 02:06:50;;;;;;;;;9.50;7.50;;;;;10.62;71.51;100921.28;4938292;28;45693;-71
2022/02/24 02:09:17;;;;;;;;;10.25;7.50;;;;;10.53;71.96;100879.50;4939862;28;45294;-67
2022/02/24 02:11:42;;;;;;;;;13.00;8.50;;;;;10.49;73.45;100872.63;4939242;28;45393;-70
2022/02/24 02:14:11;;;;;;;;;10.50;6.00;;;;;10.45;73.77;100860.50;4939052;28;45286;-69
2022/02/24 02:16:45;;;;;;;;;10.75;7.75;;;;;10.41;73.73;100862.41;4938013;28;45433;-66
2022/02/24 02:19:10;;;;;;;;;10.50;7.00;;;;;10.38;74.34;100865.09;4939642;28;45330;-72
2022/02/24 02:21:36;;;;;;;;;14.75;10.50;;;;;10.33;74.63;100856.53;4938374;28;45588;-71
2022/02/24 02:24:02;;;;;;;;;14.50;10.00;;;;;10.32;74.21;100867.94;4939126;28;46993;-72
2022/02/24 02:26:28;;;;;;;;;11.00;9.50;;;;;10.27;74.05;100854.09;4938953;28;45403;-67
2022/02/24 02:28:53;;;;;;;;;10.50;7.75;;;;;10.21;74.14;100849.91;4939125;28;45425;-73
2022/02/24 02:31:20;;;;;;;;;9.25;7.50;;;;;10.19;74.80;100844.72;4938618;28;45680;-64
2022/02/24 02:33:46;;;;;;;;;6.00;6.00;;;;;10.20;75.24;100848.19;4939241;28;46231;-63
2022/02/24 02:36:11;;;;;;;;;11.00;8.50;;;;;10.19;75.17;100839.47;4938735;28;45338;-63
2022/02/24 02:38:37;;;;;;;;;7.00;6.00;;;;;10.22;75.29;100846.38;4938991;28;45353;-66
2022/02/24 02:41:02;;;;;;;;;9.50;6.00;;;;;10.19;74.99;100843.84;4938961;28;45648;-65
2022/02/24 02:43:27;;;;;;;;;15.00;8.25;;;;;10.16;75.27;100838.69;4938620;28;46199;-63
2022/02/24 02:45:53;;;;;;;;;7.75;6.50;;;;;10.17;74.09;100854.41;4938834;28;45207;-69
2022/02/24 02:48:19;;;;;;;;;8.75;6.75;;;;;10.15;73.84;100851.00;4938966;28;45743;-71
2022/02/24 02:50:44;;;;;;;;;6.50;5.50;;;;;10.09;73.70;100838.91;4938839;28;45363;-67
2022/02/24 02:53:09;;;;;;;;;9.75;7.25;;;;;10.07;74.17;100840.72;4938939;28;46168;-71
2022/02/24 02:55:35;;;;;;;;;12.75;8.25;;;;;10.09;73.93;100843.31;4938982;28;45374;-72
2022/02/24 02:58:00;;;;;;;;;14.00;9.50;;;;;10.07;73.97;100835.47;4939008;28;45295;-67
2022/02/24 03:00:26;;;;;;;;;7.75;6.50;;;;;10.06;73.44;100823.22;4939032;28;45425;-71
2022/02/24 03:02:51;;;;;;;;;7.75;6.00;;;;;10.04;73.11;100822.44;4938402;28;45442;-64
2022/02/24 03:05:17;;;;;;;;;13.25;9.00;;;;;10.04;72.21;100826.81;4937367;28;45292;-69
2022/02/24 03:07:42;;;;;;;;;8.75;7.00;;;;;10.03;72.46;100818.09;4938830;28;45401;-70
2022/02/24 03:10:08;;;;;;;;;11.25;6.50;;;;;10.03;71.77;100812.81;4938785;28;45588;-70
2022/02/24 03:12:36;;;;;;;;;8.25;5.00;;;;;10.04;71.41;100811.91;4937448;28;48208;-69
2022/02/24 03:15:09;;;;;;;;;7.50;5.25;;;;;10.04;71.22;100811.03;4937840;28;45390;-68
2022/02/24 03:17:35;;;;;;;;;10.00;6.50;;;;;10.08;71.25;100810.91;4938283;28;45386;-65
2022/02/24 03:20:00;;;;;;;;;9.50;6.75;;;;;10.08;71.56;100808.28;4938403;28;45201;-67
2022/02/24 03:22:26;;;;;;;;;10.25;7.50;;;;;10.12;70.89;100795.03;4937906;28;45245;-69
2022/02/24 03:24:51;;;;;;;;;8.00;6.50;;;;;10.10;71.28;100795.09;4938333;28;45440;-67
2022/02/24 03:27:16;;;;;;;;;6.00;6.00;;;;;10.11;71.59;100799.44;4938164;28;45229;-66
2022/02/24 03:29:42;;;;;;;;;9.75;5.50;;;;;10.08;72.15;100800.38;4938278;28;45225;-69
2022/02/24 03:32:07;;;;;;;;;16.00;10.25;;;;;10.09;72.22;100796.00;4936558;28;46070;-71
2022/02/24 03:34:33;;;;;;;;;11.75;8.75;;;;;10.10;72.64;100789.84;4938139;28;45448;-68
2022/02/24 03:36:59;;;;;;;;;12.50;11.25;;;;;10.13;72.73;100794.97;4936670;28;45442;-70
2022/02/24 03:39:24;;;;;;;;;10.25;8.25;;;;;10.13;72.30;100788.84;4938147;28;45350;-70
2022/02/24 03:41:51;;;;;;;;;11.00;7.50;;;;;10.13;71.75;100786.22;4937869;28;45444;-70
2022/02/24 03:44:17;;;;;;;;;7.50;6.75;;;;;10.14;70.76;100786.19;4937952;28;45334;-72
2022/02/24 03:46:43;;;;;;;;;8.00;5.00;;;;;10.08;70.14;100773.25;4938688;28;45275;-69
2022/02/24 03:49:08;;;;;;;;;7.00;6.00;;;;;10.11;69.42;100780.16;4936751;28;45424;-68
2022/02/24 03:51:34;;;;;;;;;6.25;5.00;;;;;10.07;69.91;100785.53;4937483;28;46084;-71
2022/02/24 03:53:59;;;;;;;;;7.00;5.50;;;;;10.08;70.57;100784.63;4937602;28;45651;-70
2022/02/24 03:56:24;;;;;;;;;8.50;6.25;;;;;10.07;70.47;100776.78;4936456;28;45279;-63
2022/02/24 03:58:50;;;;;;;;;5.50;5.25;;;;;10.03;70.19;100762.88;4938440;28;45228;-72
2022/02/24 04:01:15;;;;;;;;;6.25;4.75;;;;;10.06;70.65;100754.91;4937748;28;46227;-68
2022/02/24 04:03:41;;;;;;;;;6.25;5.50;;;;;10.05;70.80;100741.78;4937482;28;45338;-72
2022/02/24 04:06:07;;;;;;;;;9.75;5.00;;;;;10.04;70.63;100746.22;4937689;28;45199;-69
2022/02/24 04:08:32;;;;;;;;;9.50;7.00;;;;;9.96;70.78;100740.38;4937552;28;45204;-72
2022/02/24 04:10:58;;;;;;;;;5.75;5.75;;;;;9.91;71.54;100747.56;4936994;28;46337;-72
2022/02/24 04:13:23;;;;;;;;;7.75;5.00;;;;;9.86;71.41;100747.69;4937529;28;45390;-72
2022/02/24 04:15:48;;;;;;;;;6.75;6.00;;;;;9.83;71.60;100752.22;4937569;28;45319;-70
2022/02/24 04:18:14;;;;;;;;;6.50;5.00;;;;;9.78;71.14;100740.09;4937760;28;45415;-70
2022/02/24 04:20:39;;;;;;;;;9.75;6.50;;;;;9.76;71.49;100738.41;4937270;28;46692;-70
2022/02/24 04:23:05;;;;;;;;;7.75;7.00;;;;;9.72;70.94;100732.44;4935885;28;45819;-66
2022/02/24 04:25:30;;;;;;;;;12.00;6.25;;;;;9.64;70.98;100724.78;4937924;28;45330;-67
2022/02/24 04:27:56;;;;;;;;;7.00;5.50;;;;;9.70;72.17;100736.00;4937527;28;45369;-61
2022/02/24 04:30:22;;;;;;;;;5.50;5.50;;;;;9.70;71.90;100738.63;4937420;28;45748;-69
2022/02/24 04:32:48;;;;;;;;;7.00;4.50;;;;;9.69;71.98;100726.41;4937128;28;45420;-66
2022/02/24 04:35:14;;;;;;;;;7.00;6.00;;;;;9.67;71.76;100736.97;4937336;28;45411;-73
2022/02/24 04:37:39;;;;;;;;;6.25;4.75;;;;;9.67;72.40;100731.72;4937074;28;45496;-67
2022/02/24 04:40:07;;;;;;;;;8.00;7.00;;;;;9.69;72.31;100737.78;4936912;28;45633;-66
2022/02/24 04:42:33;;;;;;;;;10.50;6.25;;;;;9.69;72.07;100744.78;4937664;28;45246;-63
2022/02/24 04:44:58;;;;;;;;;8.00;6.50;;;;;9.68;72.05;100737.81;4937315;28;45227;-69
2022/02/24 04:47:25;;;;;;;;;8.75;7.00;;;;;9.70;71.87;100736.88;4937648;28;45572;-69
2022/02/24 04:49:50;;;;;;;;;9.00;6.50;;;;;9.70;71.45;100742.13;4936896;28;45385;-70
2022/02/24 04:52:16;;;;;;;;;6.00;5.00;;;;;9.71;71.06;100730.72;4936991;28;45427;-64
2022/02/24 04:54:41;;;;;;;;;9.00;6.75;;;;;9.68;72.07;100724.69;4937200;28;45407;-65
2022/02/24 04:57:06;;;;;;;;;10.50;8.00;;;;;9.68;71.68;100725.56;4938362;28;46015;-71
2022/02/24 04:59:32;;;;;;;;;11.75;6.50;;;;;9.66;71.21;100722.13;4940382;28;45457;-70
2022/02/24 05:01:57;;;;;;;;;11.50;7.25;;;;;9.63;70.78;100715.19;4922670;28;45457;-62
2022/02/24 05:04:23;;;;;;;;;5.00;4.75;;;;;9.62;70.48;100716.13;4940487;28;45426;-70
2022/02/24 05:06:48;;;;;;;;;10.50;7.00;;;;;9.60;70.74;100709.22;4940277;28;45593;-66
2022/02/24 05:09:14;;;;;;;;;12.00;7.00;;;;;9.59;70.33;100710.97;4939921;28;45616;-68
2022/02/24 05:11:39;;;;;;;;;8.00;6.75;;;;;9.59;70.58;100710.97;4939845;28;45243;-60
2022/02/24 05:14:04;;;;;;;;;9.75;4.50;;;;;9.60;70.58;100709.22;4938560;28;45360;-61
2022/02/24 05:16:30;;;;;;;;;8.00;6.25;;;;;9.58;70.03;100711.03;4938594;28;45355;-64
2022/02/24 05:18:55;;;;;;;;;4.25;4.00;;;;;9.50;68.52;100706.88;4940002;28;45306;-67
2022/02/24 05:21:21;;;;;;;;;5.75;5.00;;;;;9.47;69.66;100708.75;4939731;28;45293;-71
2022/02/24 05:23:46;;;;;;;;;5.75;4.75;;;;;9.39;69.18;100698.50;4939893;28;45283;-72
2022/02/24 05:26:11;;;;;;;;;4.50;3.75;;;;;9.34;69.01;100698.66;4940144;28;45472;-67
2022/02/24 05:28:37;;;;;;;;;7.25;3.00;;;;;9.28;69.40;100696.25;4939654;28;45358;-71
2022/02/24 05:31:02;;;;;;;;;7.75;4.75;;;;;9.20;69.64;100693.84;4939855;28;45263;-67
2022/02/24 05:33:30;;;;;;;;;6.50;4.50;;;;;9.23;69.43;100697.28;4940050;28;45275;-69
2022/02/24 05:35:56;;;;;;;;;6.50;5.50;;;;;9.19;69.16;100684.28;4940251;28;45323;-69
2022/02/24 05:38:22;;;;;;;;;7.50;4.75;;;;;9.17;69.02;100693.13;4939332;28;45449;-71
2022/02/24 05:40:48;;;;;;;;;4.00;4.00;;;;;9.12;69.31;100690.63;4939462;28;45418;-72
2022/02/24 05:43:14;;;;;;;;;7.75;4.50;;;;;9.12;69.30;100690.63;4939341;28;45428;-68
2022/02/24 05:45:39;;;;;;;;;4.25;3.00;;;;;9.13;68.62;100687.09;4939784;28;45821;-68
2022/02/24 05:48:05;;;;;;;;;6.50;4.00;;;;;9.11;68.86;100688.91;4939098;28;46385;-72
2022/02/24 05:50:30;;;;;;;;;5.00;5.00;;;;;9.09;69.06;100685.47;4939327;28;45302;-69
2022/02/24 05:53:02;;;;;;;;;8.00;6.00;;;;;9.12;68.68;100688.00;4939549;28;45348;-68
2022/02/24 05:55:28;;;;;;;;;7.75;6.00;;;;;9.12;68.69;100681.91;4940176;28;45440;-71
2022/02/24 05:57:54;;;;;;;;;5.50;4.75;;;;;9.11;69.07;100693.31;4938193;28;48043;-69
2022/02/24 06:00:19;;;;;;;;;10.00;6.75;;;;;9.13;68.92;100689.72;4939372;28;45416;-67
2022/02/24 06:02:44;;;;;;;;;7.00;4.00;;;;;9.15;69.05;100692.31;4939361;28;45192;-69
2022/02/24 06:05:10;;;;;;;;;5.50;4.00;;;;;9.14;68.86;100690.59;4939264;28;45265;-63
2022/02/24 06:07:35;;;;;;;;;6.00;5.25;;;;;9.09;68.20;100674.97;4937297;28;47977;-68
2022/02/24 06:10:00;;;;;;;;;6.00;5.00;;;;;9.07;67.84;100676.78;4939453;28;45259;-60
2022/02/24 06:12:26;;;;;;;;;5.00;4.50;;;;;9.04;68.34;100684.78;4939410;28;45452;-65
2022/02/24 06:14:51;;;;;;;;;7.00;5.00;;;;;8.99;68.28;100684.91;4939427;28;45634;-64
2022/02/24 06:17:16;;;;;;;;;8.25;6.50;;;;;8.95;68.00;100671.94;4939250;28;46219;-64
2022/02/24 06:19:43;;;;;;;;;7.00;2.50;;;;;8.89;68.28;100667.75;4938931;28;45211;-66
2022/02/24 06:22:08;;;;;;;;;22.50;19.50;;;;;8.82;68.70;100666.22;4939165;28;45350;-62
2022/02/24 06:24:34;;;;;;;;;7.00;4.75;;;;;8.78;68.35;100665.47;4939028;28;45319;-66
2022/02/24 06:26:59;;;;;;;;;5.50;5.00;;;;;8.81;68.03;100669.75;4939175;28;46314;-68
2022/02/24 06:29:24;;;;;;;;;8.50;6.25;;;;;8.75;67.88;100669.03;4938538;28;45394;-66
2022/02/24 06:31:50;;;;;;;;;8.00;5.75;;;;;8.74;68.59;100663.84;4939259;28;45631;-70
2022/02/24 06:34:15;;;;;;;;;8.25;4.25;;;;;8.74;68.25;100664.69;4940260;28;45581;-67
2022/02/24 06:36:40;;;;;;;;;7.50;5.00;;;;;8.70;68.11;100660.44;4940067;28;46177;-69
2022/02/24 06:39:06;;;;;;;;;5.75;4.25;;;;;8.66;68.09;100660.63;4940657;28;45363;-69
2022/02/24 06:41:31;;;;;;;;;7.25;4.00;;;;;8.58;68.50;100647.72;4940368;28;45404;-64
2022/02/24 06:43:57;;;;;;;;;9.25;7.75;;;;;8.57;68.88;100662.63;4938850;28;45387;-67
2022/02/24 06:46:22;;;;;;;;;12.00;4.00;;;;;8.57;68.17;100667.84;4937393;28;46155;-64
2022/02/24 06:48:49;;;;;;;;;10.75;5.50;;;;;8.53;67.92;100671.47;4938988;28;45483;-58
2022/02/24 06:51:14;;;;;;;;;8.00;5.00;;;;;8.53;68.32;100667.97;4939089;28;45436;-62
2022/02/24 06:53:40;;;;;;;;;6.50;4.50;;;;;8.52;68.69;100667.16;4939027;28;45240;-60
2022/02/24 06:56:06;;;;;;;;;5.25;4.25;;;;;8.48;68.37;100660.22;4938669;28;45440;-70
2022/02/24 06:58:31;;;;;;;;;8.75;6.50;;;;;8.51;68.58;100677.66;4937361;28;45899;-64
2022/02/24 07:00:58;;;;;;;;;5.75;4.75;;;;;8.51;68.08;100672.41;4939029;28;45291;-66
2022/02/24 07:03:27;;;;;;;;;7.25;4.75;;;;;8.38;68.00;100650.91;4939551;28;45595;-66
2022/02/24 07:05:52;;;;;;;;;9.00;5.00;;;;;8.52;68.64;100677.63;4937460;28;47038;-68
2022/02/24 07:08:18;;;;;;;;;5.25;5.00;;;;;8.45;68.13;100652.44;4938614;28;45492;-62
2022/02/24 07:10:43;;;;;;;;;5.00;5.00;;;;;8.54;67.95;100667.94;4938690;28;45823;-66
2022/02/24 07:13:09;;;;;;;;;5.50;4.00;;;;;8.52;67.90;100663.66;4937482;28;45422;-72
2022/02/24 07:15:34;;;;;;;;;13.00;6.00;;;;;8.53;68.30;100663.63;4936304;28;47301;-64
2022/02/24 07:17:59;;;;;;;;;6.75;6.00;;;;;8.59;67.40;100678.28;4938262;28;45298;-73
2022/02/24 07:20:25;;;;;;;;;5.75;5.00;;;;;8.60;67.91;100672.13;4937212;28;45391;-69
2022/02/24 07:22:50;;;;;;;;;6.50;6.50;;;;;8.64;67.17;100673.75;4938132;28;45441;-66
2022/02/24 07:25:16;;;;;;;;;4.00;3.75;;;;;8.66;67.24;100673.72;4936591;28;46374;-73
2022/02/24 07:27:43;;;;;;;;;7.00;5.25;;;;;8.70;67.49;100686.69;4936578;28;45237;-70
2022/02/24 07:30:08;;;;;;;;;9.50;4.00;;;;;8.74;67.90;100688.31;4936440;28;45240;-71
2022/02/24 07:32:35;;;;;;;;;10.25;7.25;;;;;8.82;67.84;100681.97;4938170;28;45265;-70
2022/02/24 07:35:01;;;;;;;;;8.25;4.75;;;;;8.89;67.29;100680.84;4938080;28;46533;-68
2022/02/24 07:37:26;;;;;;;;;9.00;4.50;;;;;8.94;66.75;100675.47;4936168;28;45422;-62
2022/02/24 07:39:52;;;;;;;;;4.75;3.75;;;;;8.98;66.72;100671.84;4937650;28;45497;-68
2022/02/24 07:42:17;;;;;;;;;5.50;5.00;;;;;9.05;66.69;100682.13;4936397;28;45332;-70
2022/02/24 07:44:44;;;;;;;;;5.00;4.00;;;;;9.13;66.17;100673.97;4937391;28;46203;-68
2022/02/24 07:47:09;;;;;;;;;5.50;4.00;;;;;9.18;65.92;100674.69;4937420;28;45273;-69
2022/02/24 07:49:35;;;;;;;;;8.75;6.00;;;;;9.25;65.37;100671.84;4938040;28;45670;-69
2022/02/24 07:52:00;;;;;;;;;6.25;4.75;;;;;9.30;65.40;100670.81;4937688;28;45334;-71
2022/02/24 07:54:26;;;;;;;;;8.50;6.50;;;;;9.34;65.51;100675.03;4937273;28;46525;-72
2022/02/24 07:56:51;;;;;;;;;5.00;4.25;;;;;9.40;65.00;100684.47;4937490;28;45323;-69
2022/02/24 07:59:18;;;;;;;;;4.75;4.75;;;;;9.46;64.59;100667.66;4936257;28;45382;-68
2022/02/24 08:01:43;;;;;;;;;3.25;3.00;;;;;9.49;64.21;100662.31;4937776;28;45610;-69
2022/02/24 08:04:09;;;;;;;;;3.00;3.00;;;;;9.53;64.36;100657.78;4935833;28;48155;-62
2022/02/24 08:06:35;;;;;;;;;7.50;4.50;;;;;9.57;63.83;100665.50;4937936;28;45286;-67
2022/02/24 08:09:03;;;;;;;;;3.00;3.00;;;;;9.65;63.99;100663.47;4936058;28;45336;-69
2022/02/24 08:11:28;;;;;;;;;4.00;2.25;;;;;9.71;63.57;100654.53;4935911;28;45501;-71
2022/02/24 08:13:54;;;;;;;;;9.50;5.00;;;;;9.73;62.98;100646.59;4937610;28;45510;-74
2022/02/24 08:16:19;;;;;;;;;7.00;4.75;;;;;9.78;63.33;100647.28;4937551;28;45397;-66
2022/02/24 08:18:44;;;;;;;;;5.75;3.50;;;;;9.70;62.81;100629.19;4937632;28;45314;-66
2022/02/24 08:21:10;;;;;;;;;5.50;5.50;;;;;9.82;62.58;100656.75;4937689;28;45360;-72
2022/02/24 08:23:35;;;;;;;;;6.50;5.00;;;;;9.82;62.65;100642.78;4937552;28;45338;-70
2022/02/24 08:26:00;;;;;;;;;5.00;3.50;;;;;9.82;62.53;100641.00;4937066;28;45186;-68
2022/02/24 08:28:26;;;;;;;;;9.75;4.75;;;;;9.78;62.76;100636.78;4937054;28;45481;-70
2022/02/24 08:30:51;;;;;;;;;5.25;4.25;;;;;9.78;62.51;100632.38;4935715;28;45570;-69
2022/02/24 08:33:16;;;;;;;;;10.75;5.25;;;;;9.83;62.37;100645.34;4936877;28;45202;-64
2022/02/24 08:35:42;;;;;;;;;6.25;2.75;;;;;9.86;62.06;100639.97;4937403;28;45311;-69
2022/02/24 08:38:07;;;;;;;;;5.25;4.00;;;;;9.96;62.60;100643.13;4937742;28;45175;-60
2022/02/24 08:40:33;;;;;;;;;4.50;3.25;;;;;10.09;62.09;100644.41;4937121;28;45843;-67
2022/02/24 08:42:59;;;;;;;;;4.00;4.00;;;;;10.16;61.13;100642.41;4936880;28;45498;-69
2022/02/24 08:45:25;;;;;;;;;6.00;3.75;;;;;10.21;61.60;100634.34;4936730;28;45406;-61
2022/02/24 08:47:51;;;;;;;;;6.00;4.00;;;;;10.22;60.65;100633.41;4935196;28;45472;-68
2022/02/24 08:50:18;;;;;;;;;2.75;2.75;;;;;10.26;61.27;100628.91;4936868;28;45576;-69
2022/02/24 08:52:43;;;;;;;;;3.25;3.25;;;;;10.29;61.37;100637.53;4935238;28;46585;-69
2022/02/24 08:55:09;;;;;;;;;6.00;5.00;;;;;10.39;61.43;100635.41;4936914;28;45321;-60
2022/02/24 08:57:35;;;;;;;;;5.50;5.25;;;;;10.47;60.72;100636.00;4935733;28;45364;-68
2022/02/24 09:00:00;;;;;;;;;5.50;3.75;;;;;10.51;61.48;100623.56;4937105;28;45536;-68
2022/02/24 09:02:27;;;;;;;;;6.25;4.75;;;;;10.50;61.35;100635.00;4936824;28;46779;-69
2022/02/24 09:04:52;;;;;;;;;2.75;2.75;;;;;10.57;61.41;100631.22;4935251;28;45446;-65
2022/02/24 09:07:18;;;;;;;;;6.00;3.00;;;;;10.59;61.42;100639.91;4937017;28;45365;-66
2022/02/24 09:09:43;;;;;;;;;2.50;2.50;;;;;10.56;61.12;100640.03;4937566;28;45359;-69
2022/02/24 09:12:09;;;;;;;;;4.00;1.75;;;;;10.53;61.47;100637.53;4936496;28;45508;-72
2022/02/24 09:14:35;;;;;;;;;7.25;3.75;;;;;10.47;61.56;100649.16;4936315;28;45351;-67
2022/02/24 09:17:01;;;;;;;;;3.75;2.50;;;;;10.43;61.53;100638.81;4936232;28;45438;-68
2022/02/24 09:19:27;;;;;;;;;9.25;4.75;;;;;10.34;62.07;100632.94;4936789;28;45633;-72
2022/02/24 09:21:55;;;;;;;;;6.75;3.50;;;;;10.29;61.93;100642.78;4936615;28;45332;-73
2022/02/24 09:24:20;;;;;;;;;3.00;2.00;;;;;10.25;61.71;100635.94;4936437;28;46048;-74
2022/02/24 09:26:45;;;;;;;;;6.75;4.75;;;;;10.27;62.10;100643.78;4936554;28;45486;-68
2022/02/24 09:29:11;;;;;;;;;5.75;2.00;;;;;10.32;62.18;100644.47;4935114;28;45670;-67
2022/02/24 09:31:37;;;;;;;;;3.50;2.75;;;;;10.35;62.01;100649.59;4936439;28;45211;-73
2022/02/24 09:34:03;;;;;;;;;4.75;2.50;;;;;10.40;62.78;100636.28;4936519;28;45288;-66
2022/02/24 09:36:29;;;;;;;;;4.75;3.25;;;;;10.44;62.83;100651.91;4936532;28;45339;-68
2022/02/24 09:38:55;;;;;;;;;4.25;2.25;;;;;10.47;61.91;100645.66;4936734;28;45350;-66
2022/02/24 09:41:23;;;;;;;;;4.50;4.00;;;;;10.50;63.05;100645.53;4934777;28;46569;-72
2022/02/24 09:43:49;;;;;;;;;5.00;2.75;;;;;10.57;63.35;100635.66;4938234;28;45443;-67
2022/02/24 09:46:14;;;;;;;;;4.00;2.25;;;;;10.60;62.60;100623.25;4939956;28;45295;-71
2022/02/24 09:48:42;;;;;;;;;4.75;1.50;;;;;10.70;63.19;100621.09;4940316;28;45230;-68
2022/02/24 09:51:10;;;;;;;;;2.25;1.50;;;;;10.72;62.47;100629.78;4938624;28;47427;-70
2022/02/24 09:53:36;;;;;;;;;2.50;1.75;;;;;10.73;62.62;100617.50;4939524;28;45559;-69
2022/02/24 09:56:03;;;;;;;;;4.75;2.75;;;;;10.80;62.84;100614.53;4939855;28;45314;-69
2022/02/24 09:58:29;;;;;;;;;2.75;0.75;;;;;10.93;62.76;100606.13;4939866;28;45486;-65
2022/02/24 10:01:02;;;;;;;;;4.75;4.00;;;;;11.03;61.93;100599.56;4939738;28;45961;-70
2022/02/24 10:03:33;;;;;;;;;6.00;2.75;;;;;11.19;61.85;100605.06;4939510;28;45501;-70
2022/02/24 10:06:00;;;;;;;;;2.50;2.50;;;;;11.36;60.39;100608.75;4939777;28;45497;-73
2022/02/24 10:08:31;;;;;;;;;4.25;3.50;;;;;11.46;61.13;100604.78;4939641;28;45523;-73
2022/02/24 10:10:58;;;;;;;;;5.25;3.00;;;;;11.57;59.84;100585.00;4937384;28;47127;-70
2022/02/24 10:13:24;;;;;;;;;3.75;2.50;;;;;11.64;59.75;100573.28;4939066;28;45247;-69
2022/02/24 10:15:57;;;;;;;;;5.75;2.75;;;;;11.68;59.68;100588.06;4939383;28;45368;-71
2022/02/24 10:18:24;;;;;;;;;3.00;1.25;;;;;11.65;59.28;100578.50;4939138;28;45486;-69
2022/02/24 10:21:01;;;;;;;;;2.50;2.00;;;;;11.55;60.04;100574.56;4938915;28;45952;-72
2022/02/24 10:23:37;;;;;;;;;3.25;2.00;;;;;11.48;60.00;100568.69;4938582;28;45520;-68
2022/02/24 10:26:05;;;;;;;;;4.00;3.00;;;;;11.51;59.35;100584.34;4938602;28;45314;-73
2022/02/24 10:28:32;;;;;;;;;2.00;2.00;;;;;11.59;59.77;100593.69;4939153;28;45702;-72
2022/02/24 10:31:04;;;;;;;;;4.00;2.25;;;;;11.55;59.54;100578.03;4938727;28;45832;-70
2022/02/24 10:33:30;;;;;;;;;3.75;3.50;;;;;11.52;59.33;100566.78;4938651;28;45403;-74
2022/02/24 10:36:08;;;;;;;;;5.50;3.00;;;;;11.65;59.51;100588.16;4938773;28;45202;-69
2022/02/24 10:38:34;;;;;;;;;4.00;3.00;;;;;11.77;59.16;100590.28;4938860;28;45344;-72
2022/02/24 10:40:59;;;;;;;;;6.75;3.25;;;;;11.81;58.69;100583.94;4938106;28;46060;-71
2022/02/24 10:43:36;;;;;;;;;2.50;2.00;;;;;11.88;58.62;100573.13;4937172;28;45388;-70
2022/02/24 10:46:03;;;;;;;;;4.00;4.00;;;;;11.91;57.51;100572.97;4937209;28;45535;-67
2022/02/24 10:48:30;;;;;;;;;3.75;1.00;;;;;11.93;59.20;100581.66;4938303;28;45584;-72
2022/02/24 10:50:57;;;;;;;;;2.50;2.50;;;;;12.06;58.08;100592.50;4938047;28;45450;-72
2022/02/24 10:53:27;;;;;;;;;4.00;2.75;;;;;12.04;58.33;100578.56;4937066;28;45290;-71
2022/02/24 10:55:59;;;;;;;;;4.00;2.00;;;;;12.01;58.26;100574.28;4921155;28;45490;-68
2022/02/24 10:58:25;;;;;;;;;2.50;2.50;;;;;12.03;59.04;100574.19;4936600;28;45240;-66
2022/02/24 11:01:05;;;;;;;;;4.00;2.50;;;;;12.04;58.92;100553.06;4937690;28;47462;-69
2022/02/24 11:03:31;;;;;;;;;3.75;2.25;;;;;12.04;59.04;100563.59;4937586;28;45442;-66
2022/02/24 11:05:59;;;;;;;;;7.00;5.00;;;;;12.02;58.95;100549.63;4937991;28;45255;-74
2022/02/24 11:08:29;;;;;;;;;4.25;3.00;;;;;12.02;58.64;100547.00;4937935;28;45249;-72
2022/02/24 11:10:56;;;;;;;;;2.00;2.00;;;;;12.00;58.66;100546.22;4937480;28;45600;-73
2022/02/24 11:13:23;;;;;;;;;8.25;3.25;;;;;11.99;58.91;100552.38;4937471;28;45323;-68
2022/02/24 11:15:53;;;;;;;;;4.00;4.00;;;;;11.97;58.87;100541.06;4938702;28;45377;-68
2022/02/24 11:18:19;;;;;;;;;2.25;2.25;;;;;11.89;59.18;100532.66;4938221;28;45350;-71